sensor_id;sensor_type;location;lat;lon;timestamp;temperature;humidity
1329;DHT22;658;48.820;9.354;2022-08-21T00:02:34;24.40;60.60
1329;DHT22;658;48.820;9.354;2022-08-21T00:06:36;24.40;60.50
1329;DHT22;658;48.820;9.354;2022-08-21T00:10:40;24.30;60.30
1329;DHT22;658;48.820;9.354;2022-08-21T00:14:41;24.30;60.30
1329;DHT22;658;48.820;9.354;2022-08-21T00:18:41;24.20;60.00
1329;DHT22;658;48.820;9.354;2022-08-21T00:22:42;24.20;59.90
1329;DHT22;658;48.820;9.354;2022-08-21T00:26:43;24.20;59.70
1329;DHT22;658;48.820;9.354;2022-08-21T00:30:44;24.10;60.20
1329;DHT22;658;48.820;9.354;2022-08-21T00:34:45;24.10;59.50
1329;DHT22;658;48.820;9.354;2022-08-21T00:38:45;24.10;59.50
1329;DHT22;658;48.820;9.354;2022-08-21T00:42:46;24.10;59.40
1329;DHT22;658;48.820;9.354;2022-08-21T00:46:47;24.10;59.20
1329;DHT22;658;48.820;9.354;2022-08-21T00:51:23;24.10;59.20
1329;DHT22;658;48.820;9.354;2022-08-21T00:55:26;24.00;59.00
1329;DHT22;658;48.820;9.354;2022-08-21T00:59:32;24.00;58.90
1329;DHT22;658;48.820;9.354;2022-08-21T01:03:35;24.00;59.00
1329;DHT22;658;48.820;9.354;2022-08-21T01:07:36;23.90;58.80
1329;DHT22;658;48.820;9.354;2022-08-21T01:11:38;24.00;58.90
1329;DHT22;658;48.820;9.354;2022-08-21T01:15:43;24.00;58.80
1329;DHT22;658;48.820;9.354;2022-08-21T01:19:45;23.90;58.80
1329;DHT22;658;48.820;9.354;2022-08-21T01:23:48;23.90;58.80
1329;DHT22;658;48.820;9.354;2022-08-21T01:27:49;23.90;58.90
1329;DHT22;658;48.820;9.354;2022-08-21T01:31:49;23.90;58.90
1329;DHT22;658;48.820;9.354;2022-08-21T01:35:50;23.90;58.80
1329;DHT22;658;48.820;9.354;2022-08-21T01:39:51;23.90;59.30
1329;DHT22;658;48.820;9.354;2022-08-21T01:43:52;23.90;58.80
1329;DHT22;658;48.820;9.354;2022-08-21T01:47:52;23.80;58.80
1329;DHT22;658;48.820;9.354;2022-08-21T01:51:53;23.80;58.90
1329;DHT22;658;48.820;9.354;2022-08-21T01:55:54;23.80;58.90
1329;DHT22;658;48.820;9.354;2022-08-21T01:59:54;23.80;58.90
1329;DHT22;658;48.820;9.354;2022-08-21T02:03:55;23.70;58.80
1329;DHT22;658;48.820;9.354;2022-08-21T02:07:56;23.70;58.80
1329;DHT22;658;48.820;9.354;2022-08-21T02:11:57;23.70;58.90
1329;DHT22;658;48.820;9.354;2022-08-21T02:15:57;23.70;58.90
1329;DHT22;658;48.820;9.354;2022-08-21T02:19:58;23.70;59.00
1329;DHT22;658;48.820;9.354;2022-08-21T02:23:58;23.60;59.00
1329;DHT22;658;48.820;9.354;2022-08-21T02:28:03;23.70;59.10
1329;DHT22;658;48.820;9.354;2022-08-21T02:32:04;23.60;59.20
1329;DHT22;658;48.820;9.354;2022-08-21T02:36:06;23.60;59.20
1329;DHT22;658;48.820;9.354;2022-08-21T02:40:07;23.60;59.20
1329;DHT22;658;48.820;9.354;2022-08-21T02:44:09;23.60;59.30
1329;DHT22;658;48.820;9.354;2022-08-21T02:48:12;23.60;59.40
1329;DHT22;658;48.820;9.354;2022-08-21T02:52:13;23.60;59.40
1329;DHT22;658;48.820;9.354;2022-08-21T02:56:18;23.60;59.40
1329;DHT22;658;48.820;9.354;2022-08-21T03:00:20;23.60;59.40
1329;DHT22;658;48.820;9.354;2022-08-21T03:04:21;23.60;59.40
1329;DHT22;658;48.820;9.354;2022-08-21T03:08:22;23.60;59.40
1329;DHT22;658;48.820;9.354;2022-08-21T03:12:23;23.60;59.40
1329;DHT22;658;48.820;9.354;2022-08-21T03:16:24;23.50;59.40
1329;DHT22;658;48.820;9.354;2022-08-21T03:20:27;23.50;59.50
1329;DHT22;658;48.820;9.354;2022-08-21T03:24:28;23.50;59.60
1329;DHT22;658;48.820;9.354;2022-08-21T03:28:29;23.50;59.70
1329;DHT22;658;48.820;9.354;2022-08-21T03:32:30;23.50;59.70
1329;DHT22;658;48.820;9.354;2022-08-21T03:36:31;23.50;59.70
1329;DHT22;658;48.820;9.354;2022-08-21T03:40:32;23.50;59.70
1329;DHT22;658;48.820;9.354;2022-08-21T03:44:33;23.50;59.70
1329;DHT22;658;48.820;9.354;2022-08-21T03:48:35;23.40;60.20
1329;DHT22;658;48.820;9.354;2022-08-21T03:52:36;23.40;59.50
1329;DHT22;658;48.820;9.354;2022-08-21T03:56:37;23.40;59.40
1329;DHT22;658;48.820;9.354;2022-08-21T04:00:37;23.30;59.30
1329;DHT22;658;48.820;9.354;2022-08-21T04:04:38;23.40;59.30
1329;DHT22;658;48.820;9.354;2022-08-21T04:08:38;23.30;59.20
1329;DHT22;658;48.820;9.354;2022-08-21T04:12:40;23.30;59.20
1329;DHT22;658;48.820;9.354;2022-08-21T04:16:42;23.20;59.60
1329;DHT22;658;48.820;9.354;2022-08-21T04:20:45;23.20;59.20
1329;DHT22;658;48.820;9.354;2022-08-21T04:24:46;23.00;58.40
1329;DHT22;658;48.820;9.354;2022-08-21T04:28:47;22.90;58.20
1329;DHT22;658;48.820;9.354;2022-08-21T04:32:49;22.90;58.30
1329;DHT22;658;48.820;9.354;2022-08-21T04:36:50;22.80;58.30
1329;DHT22;658;48.820;9.354;2022-08-21T04:40:51;22.80;58.40
1329;DHT22;658;48.820;9.354;2022-08-21T04:44:52;22.70;58.50
1329;DHT22;658;48.820;9.354;2022-08-21T04:48:52;22.70;58.70
1329;DHT22;658;48.820;9.354;2022-08-21T04:52:53;22.70;58.90
1329;DHT22;658;48.820;9.354;2022-08-21T04:57:00;22.60;58.90
1329;DHT22;658;48.820;9.354;2022-08-21T05:01:05;22.60;59.60
1329;DHT22;658;48.820;9.354;2022-08-21T05:05:07;22.60;59.20
1329;DHT22;658;48.820;9.354;2022-08-21T05:09:09;22.60;59.30
1329;DHT22;658;48.820;9.354;2022-08-21T05:13:13;22.60;59.50
1329;DHT22;658;48.820;9.354;2022-08-21T05:17:14;22.60;59.60
1329;DHT22;658;48.820;9.354;2022-08-21T05:21:15;22.50;59.80
1329;DHT22;658;48.820;9.354;2022-08-21T05:25:16;22.50;60.00
1329;DHT22;658;48.820;9.354;2022-08-21T05:29:17;22.50;60.20
1329;DHT22;658;48.820;9.354;2022-08-21T05:33:17;22.50;60.40
1329;DHT22;658;48.820;9.354;2022-08-21T05:37:18;22.50;60.60
1329;DHT22;658;48.820;9.354;2022-08-21T05:41:18;22.50;60.80
1329;DHT22;658;48.820;9.354;2022-08-21T05:45:20;22.40;60.80
1329;DHT22;658;48.820;9.354;2022-08-21T05:49:21;22.50;61.00
1329;DHT22;658;48.820;9.354;2022-08-21T05:53:24;22.50;60.90
1329;DHT22;658;48.820;9.354;2022-08-21T05:57:25;22.50;61.00
1329;DHT22;658;48.820;9.354;2022-08-21T06:01:25;22.50;61.30
1329;DHT22;658;48.820;9.354;2022-08-21T06:05:26;22.50;61.40
1329;DHT22;658;48.820;9.354;2022-08-21T06:09:26;22.50;61.30
1329;DHT22;658;48.820;9.354;2022-08-21T06:13:28;22.50;61.20
1329;DHT22;658;48.820;9.354;2022-08-21T06:17:29;22.50;61.10
1329;DHT22;658;48.820;9.354;2022-08-21T06:21:29;22.60;60.90
1329;DHT22;658;48.820;9.354;2022-08-21T06:25:30;22.60;60.80
1329;DHT22;658;48.820;9.354;2022-08-21T06:29:32;22.60;60.80
1329;DHT22;658;48.820;9.354;2022-08-21T06:33:32;22.60;60.90
1329;DHT22;658;48.820;9.354;2022-08-21T06:37:33;22.60;61.20
1329;DHT22;658;48.820;9.354;2022-08-21T06:41:34;22.60;61.10
1329;DHT22;658;48.820;9.354;2022-08-21T06:45:35;22.60;61.20
1329;DHT22;658;48.820;9.354;2022-08-21T06:49:36;22.60;61.10
1329;DHT22;658;48.820;9.354;2022-08-21T06:53:37;22.60;61.30
1329;DHT22;658;48.820;9.354;2022-08-21T06:57:37;22.70;61.20
1329;DHT22;658;48.820;9.354;2022-08-21T07:01:38;22.80;61.20
1329;DHT22;658;48.820;9.354;2022-08-21T07:05:39;22.80;61.10
1329;DHT22;658;48.820;9.354;2022-08-21T07:09:40;22.90;61.00
1329;DHT22;658;48.820;9.354;2022-08-21T07:13:40;22.90;61.20
1329;DHT22;658;48.820;9.354;2022-08-21T07:17:41;22.90;61.30
1329;DHT22;658;48.820;9.354;2022-08-21T07:21:42;22.90;61.60
1329;DHT22;658;48.820;9.354;2022-08-21T07:25:42;22.90;61.60
1329;DHT22;658;48.820;9.354;2022-08-21T07:29:43;22.90;61.50
1329;DHT22;658;48.820;9.354;2022-08-21T07:33:44;22.90;61.30
1329;DHT22;658;48.820;9.354;2022-08-21T07:37:45;22.90;61.20
1329;DHT22;658;48.820;9.354;2022-08-21T07:41:45;22.90;61.10
1329;DHT22;658;48.820;9.354;2022-08-21T07:45:46;22.90;61.10
1329;DHT22;658;48.820;9.354;2022-08-21T07:49:47;22.90;60.90
1329;DHT22;658;48.820;9.354;2022-08-21T07:53:50;23.00;60.80
1329;DHT22;658;48.820;9.354;2022-08-21T07:57:50;23.00;59.90
1329;DHT22;658;48.820;9.354;2022-08-21T08:01:51;23.00;59.40
1329;DHT22;658;48.820;9.354;2022-08-21T08:05:52;23.10;59.00
1329;DHT22;658;48.820;9.354;2022-08-21T08:09:52;23.10;58.70
1329;DHT22;658;48.820;9.354;2022-08-21T08:13:53;23.10;58.70
1329;DHT22;658;48.820;9.354;2022-08-21T08:17:55;23.20;58.70
1329;DHT22;658;48.820;9.354;2022-08-21T08:21:56;23.20;58.70
1329;DHT22;658;48.820;9.354;2022-08-21T08:25:57;23.20;58.50
1329;DHT22;658;48.820;9.354;2022-08-21T08:29:58;23.20;58.50
1329;DHT22;658;48.820;9.354;2022-08-21T08:33:59;23.30;58.30
1329;DHT22;658;48.820;9.354;2022-08-21T08:37:59;23.20;58.20
1329;DHT22;658;48.820;9.354;2022-08-21T08:46:14;23.30;58.10
1329;DHT22;658;48.820;9.354;2022-08-21T08:50:21;23.40;57.80
1329;DHT22;658;48.820;9.354;2022-08-21T08:54:51;23.40;57.50
1329;DHT22;658;48.820;9.354;2022-08-21T08:59:06;23.50;57.60
1329;DHT22;658;48.820;9.354;2022-08-21T09:03:08;23.40;57.00
1329;DHT22;658;48.820;9.354;2022-08-21T09:16:11;23.50;57.20
1329;DHT22;658;48.820;9.354;2022-08-21T09:28:41;23.50;55.40
1329;DHT22;658;48.820;9.354;2022-08-21T09:32:42;23.50;55.70
1329;DHT22;658;48.820;9.354;2022-08-21T09:36:47;23.50;55.40
1329;DHT22;658;48.820;9.354;2022-08-21T09:40:57;23.50;53.20
1329;DHT22;658;48.820;9.354;2022-08-21T09:49:10;23.60;54.40
1329;DHT22;658;48.820;9.354;2022-08-21T09:53:17;23.60;54.20
1329;DHT22;658;48.820;9.354;2022-08-21T09:57:28;23.60;52.30
1329;DHT22;658;48.820;9.354;2022-08-21T10:01:50;23.60;51.90
1329;DHT22;658;48.820;9.354;2022-08-21T10:06:00;23.70;52.70
1329;DHT22;658;48.820;9.354;2022-08-21T10:10:25;23.70;53.30
1329;DHT22;658;48.820;9.354;2022-08-21T10:15:13;23.70;53.30
1329;DHT22;658;48.820;9.354;2022-08-21T10:19:43;23.80;53.70
1329;DHT22;658;48.820;9.354;2022-08-21T10:24:02;23.80;53.80
1329;DHT22;658;48.820;9.354;2022-08-21T10:33:02;23.90;52.30
1329;DHT22;658;48.820;9.354;2022-08-21T10:45:49;24.30;52.60
1329;DHT22;658;48.820;9.354;2022-08-21T10:59:29;24.30;50.90
1329;DHT22;658;48.820;9.354;2022-08-21T11:07:36;24.30;51.80
1329;DHT22;658;48.820;9.354;2022-08-21T11:11:41;24.30;52.30
1329;DHT22;658;48.820;9.354;2022-08-21T11:28:52;24.30;52.70
1329;DHT22;658;48.820;9.354;2022-08-21T11:41:36;24.30;52.20
1329;DHT22;658;48.820;9.354;2022-08-21T11:45:52;24.40;51.70
1329;DHT22;658;48.820;9.354;2022-08-21T11:50:15;24.40;51.70
1329;DHT22;658;48.820;9.354;2022-08-21T11:58:42;24.40;51.20
1329;DHT22;658;48.820;9.354;2022-08-21T12:02:55;24.40;50.70
1329;DHT22;658;48.820;9.354;2022-08-21T12:06:56;24.50;50.10
1329;DHT22;658;48.820;9.354;2022-08-21T12:11:06;24.50;50.10
1329;DHT22;658;48.820;9.354;2022-08-21T12:23:31;24.50;49.70
1329;DHT22;658;48.820;9.354;2022-08-21T12:27:53;24.50;49.10
1329;DHT22;658;48.820;9.354;2022-08-21T12:32:28;24.60;48.40
1329;DHT22;658;48.820;9.354;2022-08-21T12:36:40;24.60;48.60
1329;DHT22;658;48.820;9.354;2022-08-21T12:40:53;24.60;48.80
1329;DHT22;658;48.820;9.354;2022-08-21T12:45:04;24.60;48.70
1329;DHT22;658;48.820;9.354;2022-08-21T12:49:15;24.60;48.90
1329;DHT22;658;48.820;9.354;2022-08-21T12:57:29;24.70;49.00
1329;DHT22;658;48.820;9.354;2022-08-21T13:01:43;24.70;48.90
1329;DHT22;658;48.820;9.354;2022-08-21T13:05:46;24.70;48.90
1329;DHT22;658;48.820;9.354;2022-08-21T13:09:55;24.80;48.90
1329;DHT22;658;48.820;9.354;2022-08-21T13:13:56;24.80;48.70
1329;DHT22;658;48.820;9.354;2022-08-21T13:17:57;24.80;48.80
1329;DHT22;658;48.820;9.354;2022-08-21T13:22:03;24.80;48.90
1329;DHT22;658;48.820;9.354;2022-08-21T13:26:21;24.80;48.90
1329;DHT22;658;48.820;9.354;2022-08-21T13:30:22;24.90;48.90
1329;DHT22;658;48.820;9.354;2022-08-21T13:34:28;24.90;49.00
1329;DHT22;658;48.820;9.354;2022-08-21T13:38:34;24.90;49.10
1329;DHT22;658;48.820;9.354;2022-08-21T13:42:37;24.90;49.20
1329;DHT22;658;48.820;9.354;2022-08-21T13:46:38;24.90;49.40
1329;DHT22;658;48.820;9.354;2022-08-21T13:50:40;24.90;49.50
1329;DHT22;658;48.820;9.354;2022-08-21T13:54:42;24.90;48.80
1329;DHT22;658;48.820;9.354;2022-08-21T13:58:46;25.00;48.10
1329;DHT22;658;48.820;9.354;2022-08-21T14:02:49;25.00;47.60
1329;DHT22;658;48.820;9.354;2022-08-21T14:06:52;25.10;46.80
1329;DHT22;658;48.820;9.354;2022-08-21T14:10:53;25.10;46.70
1329;DHT22;658;48.820;9.354;2022-08-21T14:14:56;25.10;46.40
1329;DHT22;658;48.820;9.354;2022-08-21T14:23:01;25.20;46.50
1329;DHT22;658;48.820;9.354;2022-08-21T14:27:07;25.20;46.20
1329;DHT22;658;48.820;9.354;2022-08-21T14:31:19;25.20;46.90
1329;DHT22;658;48.820;9.354;2022-08-21T14:35:21;25.20;46.90
1329;DHT22;658;48.820;9.354;2022-08-21T14:39:22;25.20;47.30
1329;DHT22;658;48.820;9.354;2022-08-21T14:43:23;25.20;47.50
1329;DHT22;658;48.820;9.354;2022-08-21T14:47:25;25.20;47.60
1329;DHT22;658;48.820;9.354;2022-08-21T14:51:26;25.20;47.90
1329;DHT22;658;48.820;9.354;2022-08-21T14:55:27;25.30;47.70
1329;DHT22;658;48.820;9.354;2022-08-21T14:59:28;25.40;47.40
1329;DHT22;658;48.820;9.354;2022-08-21T15:03:30;25.40;47.30
1329;DHT22;658;48.820;9.354;2022-08-21T15:07:31;25.40;46.90
1329;DHT22;658;48.820;9.354;2022-08-21T15:11:33;25.50;46.70
1329;DHT22;658;48.820;9.354;2022-08-21T15:15:40;25.50;46.90
1329;DHT22;658;48.820;9.354;2022-08-21T15:19:41;25.60;46.10
1329;DHT22;658;48.820;9.354;2022-08-21T15:23:41;25.60;46.50
1329;DHT22;658;48.820;9.354;2022-08-21T15:27:42;25.60;46.20
1329;DHT22;658;48.820;9.354;2022-08-21T15:32:00;25.60;45.50
1329;DHT22;658;48.820;9.354;2022-08-21T15:36:01;25.70;44.50
1329;DHT22;658;48.820;9.354;2022-08-21T15:40:03;25.70;45.00
1329;DHT22;658;48.820;9.354;2022-08-21T15:44:05;25.80;45.00
1329;DHT22;658;48.820;9.354;2022-08-21T15:48:08;25.80;44.70
1329;DHT22;658;48.820;9.354;2022-08-21T15:52:09;25.80;44.70
1329;DHT22;658;48.820;9.354;2022-08-21T15:56:34;25.90;44.50
1329;DHT22;658;48.820;9.354;2022-08-21T16:00:36;25.90;44.10
1329;DHT22;658;48.820;9.354;2022-08-21T16:04:36;26.00;43.60
1329;DHT22;658;48.820;9.354;2022-08-21T16:08:37;26.00;43.90
1329;DHT22;658;48.820;9.354;2022-08-21T16:12:45;26.10;42.30
1329;DHT22;658;48.820;9.354;2022-08-21T16:16:46;26.20;42.50
1329;DHT22;658;48.820;9.354;2022-08-21T16:20:47;26.20;42.40
1329;DHT22;658;48.820;9.354;2022-08-21T16:24:48;26.30;42.30
1329;DHT22;658;48.820;9.354;2022-08-21T16:28:50;26.30;42.40
1329;DHT22;658;48.820;9.354;2022-08-21T16:32:52;26.30;41.80
1329;DHT22;658;48.820;9.354;2022-08-21T16:36:53;26.40;42.00
1329;DHT22;658;48.820;9.354;2022-08-21T16:40:55;26.60;41.90
1329;DHT22;658;48.820;9.354;2022-08-21T16:44:55;26.70;41.50
1329;DHT22;658;48.820;9.354;2022-08-21T16:48:56;26.70;41.30
1329;DHT22;658;48.820;9.354;2022-08-21T16:52:57;26.80;41.30
1329;DHT22;658;48.820;9.354;2022-08-21T16:56:58;26.90;40.00
1329;DHT22;658;48.820;9.354;2022-08-21T17:01:03;26.90;40.20
1329;DHT22;658;48.820;9.354;2022-08-21T17:05:05;26.90;39.50
1329;DHT22;658;48.820;9.354;2022-08-21T17:09:06;27.00;39.30
1329;DHT22;658;48.820;9.354;2022-08-21T17:13:07;27.00;39.10
1329;DHT22;658;48.820;9.354;2022-08-21T17:17:09;27.10;39.70
1329;DHT22;658;48.820;9.354;2022-08-21T17:21:10;27.10;39.50
1329;DHT22;658;48.820;9.354;2022-08-21T17:25:11;27.10;39.40
1329;DHT22;658;48.820;9.354;2022-08-21T17:29:13;27.20;39.40
1329;DHT22;658;48.820;9.354;2022-08-21T17:33:16;27.20;39.50
1329;DHT22;658;48.820;9.354;2022-08-21T17:37:18;27.20;39.50
1329;DHT22;658;48.820;9.354;2022-08-21T17:41:20;27.20;39.70
1329;DHT22;658;48.820;9.354;2022-08-21T17:45:22;27.20;39.70
1329;DHT22;658;48.820;9.354;2022-08-21T17:49:22;27.20;39.80
1329;DHT22;658;48.820;9.354;2022-08-21T17:53:24;27.20;40.10
1329;DHT22;658;48.820;9.354;2022-08-21T17:57:25;27.20;40.60
1329;DHT22;658;48.820;9.354;2022-08-21T18:01:35;27.30;41.00
1329;DHT22;658;48.820;9.354;2022-08-21T18:05:37;27.20;41.40
1329;DHT22;658;48.820;9.354;2022-08-21T18:09:37;27.20;42.00
1329;DHT22;658;48.820;9.354;2022-08-21T18:13:39;27.20;43.30
1329;DHT22;658;48.820;9.354;2022-08-21T18:17:41;27.10;44.00
1329;DHT22;658;48.820;9.354;2022-08-21T18:21:44;27.10;44.40
1329;DHT22;658;48.820;9.354;2022-08-21T18:25:48;27.10;44.60
1329;DHT22;658;48.820;9.354;2022-08-21T18:29:52;26.90;46.50
1329;DHT22;658;48.820;9.354;2022-08-21T18:33:54;26.30;47.50
1329;DHT22;658;48.820;9.354;2022-08-21T18:37:54;26.10;47.60
1329;DHT22;658;48.820;9.354;2022-08-21T18:41:55;25.90;47.60
1329;DHT22;658;48.820;9.354;2022-08-21T18:45:56;25.70;48.20
1329;DHT22;658;48.820;9.354;2022-08-21T18:49:57;25.50;48.10
1329;DHT22;658;48.820;9.354;2022-08-21T18:53:58;25.40;48.30
1329;DHT22;658;48.820;9.354;2022-08-21T18:57:58;25.30;48.50
1329;DHT22;658;48.820;9.354;2022-08-21T19:01:59;25.30;48.80
1329;DHT22;658;48.820;9.354;2022-08-21T19:06:00;25.30;48.40
1329;DHT22;658;48.820;9.354;2022-08-21T19:10:01;25.30;48.40
1329;DHT22;658;48.820;9.354;2022-08-21T19:14:03;25.20;48.40
1329;DHT22;658;48.820;9.354;2022-08-21T19:18:10;25.00;48.60
1329;DHT22;658;48.820;9.354;2022-08-21T19:22:11;24.90;49.10
1329;DHT22;658;48.820;9.354;2022-08-21T19:26:12;24.80;49.30
1329;DHT22;658;48.820;9.354;2022-08-21T19:30:14;24.70;49.70
1329;DHT22;658;48.820;9.354;2022-08-21T19:34:19;24.60;49.70
1329;DHT22;658;48.820;9.354;2022-08-21T19:38:21;24.50;50.00
1329;DHT22;658;48.820;9.354;2022-08-21T19:42:22;24.50;50.40
1329;DHT22;658;48.820;9.354;2022-08-21T19:46:30;24.40;50.80
1329;DHT22;658;48.820;9.354;2022-08-21T19:50:31;24.50;51.10
1329;DHT22;658;48.820;9.354;2022-08-21T19:54:32;24.40;51.00
1329;DHT22;658;48.820;9.354;2022-08-21T19:58:39;24.30;51.30
1329;DHT22;658;48.820;9.354;2022-08-21T20:02:40;24.30;51.40
1329;DHT22;658;48.820;9.354;2022-08-21T20:06:43;24.30;51.50
1329;DHT22;658;48.820;9.354;2022-08-21T20:10:44;24.20;51.40
1329;DHT22;658;48.820;9.354;2022-08-21T20:14:46;24.10;51.20
1329;DHT22;658;48.820;9.354;2022-08-21T20:18:47;24.10;51.20
1329;DHT22;658;48.820;9.354;2022-08-21T20:22:48;24.00;51.40
1329;DHT22;658;48.820;9.354;2022-08-21T20:26:49;23.90;51.70
1329;DHT22;658;48.820;9.354;2022-08-21T20:30:50;23.80;52.10
1329;DHT22;658;48.820;9.354;2022-08-21T20:34:50;23.60;52.40
1329;DHT22;658;48.820;9.354;2022-08-21T20:38:51;23.60;52.50
1329;DHT22;658;48.820;9.354;2022-08-21T20:42:53;23.80;52.50
1329;DHT22;658;48.820;9.354;2022-08-21T20:46:54;23.80;52.30
1329;DHT22;658;48.820;9.354;2022-08-21T20:51:30;23.90;52.30
1329;DHT22;658;48.820;9.354;2022-08-21T20:55:36;23.90;52.20
1329;DHT22;658;48.820;9.354;2022-08-21T21:00:06;23.90;52.20
1329;DHT22;658;48.820;9.354;2022-08-21T21:04:42;23.90;52.40
1329;DHT22;658;48.820;9.354;2022-08-21T21:12:47;24.10;52.50
1329;DHT22;658;48.820;9.354;2022-08-21T21:16:54;24.10;52.30
1329;DHT22;658;48.820;9.354;2022-08-21T21:21:05;24.10;52.30
1329;DHT22;658;48.820;9.354;2022-08-21T21:25:16;24.10;52.20
1329;DHT22;658;48.820;9.354;2022-08-21T21:29:20;24.10;52.10
1329;DHT22;658;48.820;9.354;2022-08-21T21:33:22;24.10;52.10
1329;DHT22;658;48.820;9.354;2022-08-21T21:46:31;24.00;52.20
1329;DHT22;658;48.820;9.354;2022-08-21T21:55:09;24.00;52.20
1329;DHT22;658;48.820;9.354;2022-08-21T22:04:26;23.90;52.00
1329;DHT22;658;48.820;9.354;2022-08-21T22:12:49;23.90;52.00
1329;DHT22;658;48.820;9.354;2022-08-21T22:16:54;23.90;52.00
1329;DHT22;658;48.820;9.354;2022-08-21T22:21:33;23.90;52.10
1329;DHT22;658;48.820;9.354;2022-08-21T22:25:33;23.90;52.10
1329;DHT22;658;48.820;9.354;2022-08-21T22:30:02;23.90;52.20
1329;DHT22;658;48.820;9.354;2022-08-21T22:34:17;23.80;52.10
1329;DHT22;658;48.820;9.354;2022-08-21T22:42:27;23.80;52.10
1329;DHT22;658;48.820;9.354;2022-08-21T22:46:44;23.80;52.10
1329;DHT22;658;48.820;9.354;2022-08-21T22:51:03;23.80;52.10
1329;DHT22;658;48.820;9.354;2022-08-21T22:55:44;23.80;52.10
1329;DHT22;658;48.820;9.354;2022-08-21T23:03:57;23.70;52.20
1329;DHT22;658;48.820;9.354;2022-08-21T23:08:15;23.70;52.20
1329;DHT22;658;48.820;9.354;2022-08-21T23:12:27;23.70;52.30
1329;DHT22;658;48.820;9.354;2022-08-21T23:20:45;23.60;52.30
1329;DHT22;658;48.820;9.354;2022-08-21T23:37:42;23.60;52.70
1329;DHT22;658;48.820;9.354;2022-08-21T23:42:18;23.60;52.80
1329;DHT22;658;48.820;9.354;2022-08-21T23:50:50;23.50;52.80
